sensor_id;sensor_type;location;lat;lon;timestamp;pressure;altitude;pressure_sealevel;temperature;humidity
61128;BME280;47013;42.664;23.242;2023-01-04T00:01:02;94984.47;;;8.63;87.00
61128;BME280;47013;42.664;23.242;2023-01-04T00:03:28;94984.06;;;8.61;86.56
61128;BME280;47013;42.664;23.242;2023-01-04T00:05:53;94984.84;;;8.61;86.51
61128;BME280;47013;42.664;23.242;2023-01-04T00:08:18;95001.13;;;8.68;86.46
61128;BME280;47013;42.664;23.242;2023-01-04T00:10:44;94995.09;;;8.78;86.11
61128;BME280;47013;42.664;23.242;2023-01-04T00:13:09;94993.94;;;8.79;85.33
61128;BME280;47013;42.664;23.242;2023-01-04T00:15:34;94991.22;;;8.79;85.09
61128;BME280;47013;42.664;23.242;2023-01-04T00:18:00;94992.66;;;8.70;85.02
61128;BME280;47013;42.664;23.242;2023-01-04T00:20:25;94993.16;;;8.79;84.71
61128;BME280;47013;42.664;23.242;2023-01-04T00:22:51;94986.25;;;8.85;84.57
61128;BME280;47013;42.664;23.242;2023-01-04T00:25:16;94988.19;;;8.84;84.38
61128;BME280;47013;42.664;23.242;2023-01-04T00:27:41;94989.03;;;8.89;83.89
61128;BME280;47013;42.664;23.242;2023-01-04T05:09:06;95037.19;;;7.77;90.02
61128;BME280;47013;42.664;23.242;2023-01-04T05:11:32;95036.41;;;7.77;89.97
61128;BME280;47013;42.664;23.242;2023-01-04T05:14:15;95037.19;;;7.77;89.83
61128;BME280;47013;42.664;23.242;2023-01-04T05:16:41;95036.34;;;7.73;89.88
61128;BME280;47013;42.664;23.242;2023-01-04T05:19:06;95040.56;;;7.71;89.96
61128;BME280;47013;42.664;23.242;2023-01-04T05:21:31;95033.16;;;7.67;90.15
61128;BME280;47013;42.664;23.242;2023-01-04T05:23:57;95029.69;;;9.29;100.00
61128;BME280;47013;42.664;23.242;2023-01-04T05:26:22;95043.13;;;9.22;86.42
61128;BME280;47013;42.664;23.242;2023-01-04T05:28:48;95041.22;;;8.93;84.90
61128;BME280;47013;42.664;23.242;2023-01-04T05:31:13;95043.38;;;8.80;85.74
61128;BME280;47013;42.664;23.242;2023-01-04T05:33:38;95038.78;;;8.54;86.14
61128;BME280;47013;42.664;23.242;2023-01-04T05:36:04;95040.94;;;8.41;86.74
61128;BME280;47013;42.664;23.242;2023-01-04T05:38:29;95048.06;;;8.30;87.07
61128;BME280;47013;42.664;23.242;2023-01-04T05:40:55;95049.13;;;8.22;87.52
61128;BME280;47013;42.664;23.242;2023-01-04T05:43:22;95054.88;;;8.20;87.59
61128;BME280;47013;42.664;23.242;2023-01-04T05:45:53;95061.25;;;8.09;87.40
61128;BME280;47013;42.664;23.242;2023-01-04T05:48:19;95056.75;;;7.93;88.12
61128;BME280;47013;42.664;23.242;2023-01-04T05:50:45;95069.47;;;7.93;88.13
61128;BME280;47013;42.664;23.242;2023-01-04T05:53:15;95054.25;;;7.81;87.88
61128;BME280;47013;42.664;23.242;2023-01-04T05:55:46;95056.44;;;7.76;88.20
61128;BME280;47013;42.664;23.242;2023-01-04T05:58:11;95055.97;;;7.70;87.66
61128;BME280;47013;42.664;23.242;2023-01-04T06:00:37;95060.59;;;7.69;88.04
61128;BME280;47013;42.664;23.242;2023-01-04T06:03:02;95057.09;;;7.46;87.97
61128;BME280;47013;42.664;23.242;2023-01-04T06:05:27;95056.66;;;7.44;88.52
61128;BME280;47013;42.664;23.242;2023-01-04T06:07:53;95061.13;;;7.36;88.77
61128;BME280;47013;42.664;23.242;2023-01-04T06:10:19;95053.03;;;7.36;88.78
61128;BME280;47013;42.664;23.242;2023-01-04T06:12:44;95052.78;;;7.22;89.27
61128;BME280;47013;42.664;23.242;2023-01-04T06:15:10;95062.78;;;7.02;90.15
61128;BME280;47013;42.664;23.242;2023-01-04T06:17:36;95063.78;;;7.14;89.87
61128;BME280;47013;42.664;23.242;2023-01-04T06:20:03;95070.31;;;7.13;89.68
61128;BME280;47013;42.664;23.242;2023-01-04T06:22:29;95071.66;;;7.22;88.96
61128;BME280;47013;42.664;23.242;2023-01-04T06:24:54;95076.84;;;7.31;88.12
61128;BME280;47013;42.664;23.242;2023-01-04T06:27:20;95074.41;;;7.26;88.64
61128;BME280;47013;42.664;23.242;2023-01-04T06:29:45;95079.53;;;7.31;88.30
61128;BME280;47013;42.664;23.242;2023-01-04T06:32:11;95077.63;;;7.31;87.99
61128;BME280;47013;42.664;23.242;2023-01-04T06:34:36;95079.66;;;7.38;87.69
61128;BME280;47013;42.664;23.242;2023-01-04T06:37:02;95086.97;;;7.37;87.46
61128;BME280;47013;42.664;23.242;2023-01-04T06:39:28;95082.31;;;7.34;87.27
61128;BME280;47013;42.664;23.242;2023-01-04T06:41:53;95089.88;;;7.48;87.22
61128;BME280;47013;42.664;23.242;2023-01-04T06:44:19;95090.31;;;7.50;86.90
61128;BME280;47013;42.664;23.242;2023-01-04T06:46:45;95087.59;;;7.50;86.41
61128;BME280;47013;42.664;23.242;2023-01-04T06:49:10;95088.81;;;7.53;86.51
61128;BME280;47013;42.664;23.242;2023-01-04T06:51:35;95088.03;;;7.52;86.43
61128;BME280;47013;42.664;23.242;2023-01-04T06:54:01;95086.06;;;7.49;86.52
61128;BME280;47013;42.664;23.242;2023-01-04T06:56:26;95085.75;;;7.54;86.20
61128;BME280;47013;42.664;23.242;2023-01-04T06:58:52;95092.44;;;7.60;85.96
61128;BME280;47013;42.664;23.242;2023-01-04T07:01:17;95094.41;;;7.63;86.05
61128;BME280;47013;42.664;23.242;2023-01-04T07:03:42;95090.56;;;7.64;85.53
61128;BME280;47013;42.664;23.242;2023-01-04T07:06:08;95077.06;;;7.64;85.58
61128;BME280;47013;42.664;23.242;2023-01-04T07:08:35;95090.63;;;7.68;85.48
61128;BME280;47013;42.664;23.242;2023-01-04T07:11:00;95090.22;;;7.66;85.61
61128;BME280;47013;42.664;23.242;2023-01-04T07:13:26;95098.31;;;7.66;85.70
61128;BME280;47013;42.664;23.242;2023-01-04T07:15:51;95106.97;;;7.75;85.01
61128;BME280;47013;42.664;23.242;2023-01-04T07:18:17;95102.88;;;7.62;85.08
61128;BME280;47013;42.664;23.242;2023-01-04T07:20:42;95108.41;;;7.69;85.43
61128;BME280;47013;42.664;23.242;2023-01-04T07:23:08;95119.91;;;7.66;85.82
61128;BME280;47013;42.664;23.242;2023-01-04T07:25:33;95111.03;;;7.65;85.75
61128;BME280;47013;42.664;23.242;2023-01-04T07:27:59;95119.84;;;7.62;86.50
61128;BME280;47013;42.664;23.242;2023-01-04T07:30:24;95117.47;;;7.80;97.41
61128;BME280;47013;42.664;23.242;2023-01-04T07:32:51;95106.03;;;7.67;87.60
61128;BME280;47013;42.664;23.242;2023-01-04T07:35:17;95119.63;;;8.17;99.25
61128;BME280;47013;42.664;23.242;2023-01-04T07:37:43;95120.69;;;8.09;87.22
61128;BME280;47013;42.664;23.242;2023-01-04T07:40:09;95127.56;;;8.06;86.03
61128;BME280;47013;42.664;23.242;2023-01-04T07:42:35;95118.75;;;7.86;85.96
61128;BME280;47013;42.664;23.242;2023-01-04T07:45:01;95117.34;;;7.73;86.50
61128;BME280;47013;42.664;23.242;2023-01-04T07:47:27;95111.25;;;7.57;87.25
61128;BME280;47013;42.664;23.242;2023-01-04T07:49:53;95112.72;;;7.54;86.61
61128;BME280;47013;42.664;23.242;2023-01-04T07:52:18;95114.38;;;7.59;87.06
61128;BME280;47013;42.664;23.242;2023-01-04T07:54:43;95113.97;;;7.57;87.08
61128;BME280;47013;42.664;23.242;2023-01-04T07:57:09;95115.78;;;7.53;87.26
61128;BME280;47013;42.664;23.242;2023-01-04T07:59:34;95118.50;;;7.53;87.48
61128;BME280;47013;42.664;23.242;2023-01-04T08:01:59;95128.94;;;7.54;86.99
61128;BME280;47013;42.664;23.242;2023-01-04T08:04:25;95123.25;;;7.59;86.72
61128;BME280;47013;42.664;23.242;2023-01-04T08:06:50;95119.06;;;7.62;86.52
61128;BME280;47013;42.664;23.242;2023-01-04T08:09:16;95123.69;;;7.61;86.53
61128;BME280;47013;42.664;23.242;2023-01-04T08:15:13;95126.16;;;7.70;85.79
61128;BME280;47013;42.664;23.242;2023-01-04T08:17:39;95132.03;;;7.76;85.91
61128;BME280;47013;42.664;23.242;2023-01-04T08:20:05;95137.03;;;7.74;85.94
61128;BME280;47013;42.664;23.242;2023-01-04T08:22:31;95129.66;;;7.71;86.00
61128;BME280;47013;42.664;23.242;2023-01-04T08:24:57;95125.38;;;7.69;86.12
61128;BME280;47013;42.664;23.242;2023-01-04T08:27:22;95124.47;;;7.62;86.70
61128;BME280;47013;42.664;23.242;2023-01-04T08:29:47;95129.66;;;7.71;86.71
61128;BME280;47013;42.664;23.242;2023-01-04T08:32:13;95126.84;;;7.67;86.75
61128;BME280;47013;42.664;23.242;2023-01-04T08:34:38;95129.66;;;7.71;86.95
61128;BME280;47013;42.664;23.242;2023-01-04T08:37:03;95129.66;;;7.71;86.57
61128;BME280;47013;42.664;23.242;2023-01-04T08:39:29;95127.38;;;7.73;87.23
61128;BME280;47013;42.664;23.242;2023-01-04T08:41:57;95124.66;;;7.73;87.02
61128;BME280;47013;42.664;23.242;2023-01-04T08:44:24;95123.88;;;7.72;87.12
61128;BME280;47013;42.664;23.242;2023-01-04T08:46:51;95130.63;;;7.62;87.75
61128;BME280;47013;42.664;23.242;2023-01-04T08:49:20;95121.53;;;7.51;87.84
61128;BME280;47013;42.664;23.242;2023-01-04T08:51:47;95120.84;;;7.54;88.59
61128;BME280;47013;42.664;23.242;2023-01-04T08:54:13;95121.28;;;7.56;88.08
61128;BME280;47013;42.664;23.242;2023-01-04T08:56:39;95129.00;;;7.58;87.84
61128;BME280;47013;42.664;23.242;2023-01-04T08:59:05;95123.81;;;7.49;87.78
61128;BME280;47013;42.664;23.242;2023-01-04T09:01:32;95135.81;;;7.52;87.96
61128;BME280;47013;42.664;23.242;2023-01-04T09:03:58;95132.69;;;7.50;87.79
61128;BME280;47013;42.664;23.242;2023-01-04T09:06:24;95126.81;;;7.44;87.41
61128;BME280;47013;42.664;23.242;2023-01-04T09:08:49;95128.88;;;7.51;87.63
61128;BME280;47013;42.664;23.242;2023-01-04T09:11:17;95132.66;;;7.46;87.94
61128;BME280;47013;42.664;23.242;2023-01-04T09:13:43;95120.66;;;7.44;87.87
61128;BME280;47013;42.664;23.242;2023-01-04T09:16:14;95122.69;;;7.50;87.48
61128;BME280;47013;42.664;23.242;2023-01-04T09:18:41;95126.81;;;7.44;87.42
61128;BME280;47013;42.664;23.242;2023-01-04T09:21:09;95115.94;;;7.40;87.78
61128;BME280;47013;42.664;23.242;2023-01-04T09:23:37;95119.16;;;7.46;87.47
61128;BME280;47013;42.664;23.242;2023-01-04T09:26:07;95122.34;;;7.52;87.76
61128;BME280;47013;42.664;23.242;2023-01-04T09:28:33;95123.09;;;7.52;87.98
61128;BME280;47013;42.664;23.242;2023-01-04T09:31:04;95120.34;;;7.49;87.22
61128;BME280;47013;42.664;23.242;2023-01-04T09:33:29;95115.78;;;7.53;86.62
61128;BME280;47013;42.664;23.242;2023-01-04T09:35:54;95125.91;;;7.56;86.46
61128;BME280;47013;42.664;23.242;2023-01-04T09:38:20;95118.84;;;7.51;86.78
61128;BME280;47013;42.664;23.242;2023-01-04T09:43:17;95122.69;;;7.69;86.31
61128;BME280;47013;42.664;23.242;2023-01-04T09:45:44;95121.81;;;7.65;85.34
61128;BME280;47013;42.664;23.242;2023-01-04T09:48:19;95110.66;;;7.67;85.05
61128;BME280;47013;42.664;23.242;2023-01-04T09:50:54;95122.06;;;7.80;85.08
61128;BME280;47013;42.664;23.242;2023-01-04T09:53:31;95117.41;;;7.77;84.78
61128;BME280;47013;42.664;23.242;2023-01-04T09:56:18;95113.19;;;7.79;84.55
61128;BME280;47013;42.664;23.242;2023-01-04T09:58:45;95107.28;;;7.70;84.75
61128;BME280;47013;42.664;23.242;2023-01-04T10:01:19;95111.53;;;7.71;84.38
61128;BME280;47013;42.664;23.242;2023-01-04T10:04:00;95107.31;;;7.74;84.66
61128;BME280;47013;42.664;23.242;2023-01-04T10:06:27;95104.63;;;7.74;84.89
61128;BME280;47013;42.664;23.242;2023-01-04T10:08:59;95106.31;;;7.82;85.07
61128;BME280;47013;42.664;23.242;2023-01-04T10:11:44;95113.28;;;7.83;84.92
61128;BME280;47013;42.664;23.242;2023-01-04T10:19:29;95105.19;;;7.83;84.84
61128;BME280;47013;42.664;23.242;2023-01-04T10:22:25;95105.81;;;7.76;84.62
61128;BME280;47013;42.664;23.242;2023-01-04T10:27:41;95097.66;;;7.73;84.62
61128;BME280;47013;42.664;23.242;2023-01-04T10:32:43;95100.97;;;7.85;84.50
61128;BME280;47013;42.664;23.242;2023-01-04T10:35:27;95096.03;;;7.91;84.66
61128;BME280;47013;42.664;23.242;2023-01-04T10:38:02;95093.06;;;7.96;84.07
61128;BME280;47013;42.664;23.242;2023-01-04T10:40:32;95091.84;;;7.93;83.84
61128;BME280;47013;42.664;23.242;2023-01-04T10:46:10;95100.81;;;7.97;83.50
61128;BME280;47013;42.664;23.242;2023-01-04T10:48:50;95096.47;;;7.70;84.37
61128;BME280;47013;42.664;23.242;2023-01-04T10:51:38;95092.38;;;7.80;84.76
61128;BME280;47013;42.664;23.242;2023-01-04T10:56:59;95092.50;;;7.87;83.84
61128;BME280;47013;42.664;23.242;2023-01-04T10:59:36;95082.13;;;7.89;84.16
61128;BME280;47013;42.664;23.242;2023-01-04T11:02:17;95086.81;;;7.92;84.21
61128;BME280;47013;42.664;23.242;2023-01-04T11:07:58;95087.53;;;7.89;83.84
61128;BME280;47013;42.664;23.242;2023-01-04T11:10:26;95088.25;;;7.86;84.05
61128;BME280;47013;42.664;23.242;2023-01-04T11:12:53;95094.78;;;7.85;84.52
61128;BME280;47013;42.664;23.242;2023-01-04T11:15:18;95078.72;;;7.69;85.06
61128;BME280;47013;42.664;23.242;2023-01-04T11:17:44;95083.50;;;7.79;85.18
61128;BME280;47013;42.664;23.242;2023-01-04T11:20:10;95084.63;;;7.78;84.65
61128;BME280;47013;42.664;23.242;2023-01-04T11:22:47;95080.94;;;7.86;84.77
61128;BME280;47013;42.664;23.242;2023-01-04T11:25:18;95072.84;;;7.86;85.06
61128;BME280;47013;42.664;23.242;2023-01-04T11:28:15;95065.94;;;7.89;84.81
61128;BME280;47013;42.664;23.242;2023-01-04T11:31:04;95065.28;;;7.95;84.36
61128;BME280;47013;42.664;23.242;2023-01-04T11:33:56;95063.53;;;7.84;85.28
61128;BME280;47013;42.664;23.242;2023-01-04T11:39:01;95058.75;;;7.96;84.77
61128;BME280;47013;42.664;23.242;2023-01-04T11:41:27;95054.59;;;8.03;84.32
61128;BME280;47013;42.664;23.242;2023-01-04T11:44:01;95057.19;;;7.95;84.39
61128;BME280;47013;42.664;23.242;2023-01-04T11:46:29;95056.31;;;7.91;84.54
61128;BME280;47013;42.664;23.242;2023-01-04T11:48:54;95047.81;;;7.89;84.54
61128;BME280;47013;42.664;23.242;2023-01-04T11:54:03;95032.88;;;7.95;84.18
61128;BME280;47013;42.664;23.242;2023-01-04T11:56:36;95034.47;;;8.00;84.33
61128;BME280;47013;42.664;23.242;2023-01-04T11:59:10;95025.97;;;7.98;83.75
61128;BME280;47013;42.664;23.242;2023-01-04T12:01:42;95030.31;;;8.06;82.91
61128;BME280;47013;42.664;23.242;2023-01-04T12:04:21;95024.91;;;8.06;83.15
61128;BME280;47013;42.664;23.242;2023-01-04T12:07:00;95033.16;;;8.13;82.88
61128;BME280;47013;42.664;23.242;2023-01-04T12:09:28;95029.53;;;8.06;82.91
61128;BME280;47013;42.664;23.242;2023-01-04T12:11:57;95033.94;;;8.14;83.14
61128;BME280;47013;42.664;23.242;2023-01-04T12:14:27;95041.66;;;8.15;82.49
61128;BME280;47013;42.664;23.242;2023-01-04T12:16:57;95043.34;;;8.23;82.85
61128;BME280;47013;42.664;23.242;2023-01-04T12:19:25;95033.72;;;8.26;82.25
61128;BME280;47013;42.664;23.242;2023-01-04T12:21:53;95032.63;;;8.31;82.18
61128;BME280;47013;42.664;23.242;2023-01-04T12:24:21;95029.28;;;8.37;82.12
61128;BME280;47013;42.664;23.242;2023-01-04T12:26:49;95032.44;;;8.43;81.75
61128;BME280;47013;42.664;23.242;2023-01-04T12:37:05;95033.41;;;8.57;81.54
61128;BME280;47013;42.664;23.242;2023-01-04T12:39:43;95023.88;;;8.64;81.14
61128;BME280;47013;42.664;23.242;2023-01-04T12:42:14;95029.41;;;8.74;81.13
61128;BME280;47013;42.664;23.242;2023-01-04T12:52:47;95016.28;;;8.73;81.10
61128;BME280;47013;42.664;23.242;2023-01-04T12:58:00;95004.00;;;8.82;79.84
61128;BME280;47013;42.664;23.242;2023-01-04T13:05:54;95007.31;;;8.99;79.36
61128;BME280;47013;42.664;23.242;2023-01-04T13:08:20;94997.59;;;8.94;78.49
61128;BME280;47013;42.664;23.242;2023-01-04T13:10:49;95013.06;;;8.97;78.96
61128;BME280;47013;42.664;23.242;2023-01-04T13:13:37;95013.06;;;8.97;78.90
61128;BME280;47013;42.664;23.242;2023-01-04T13:16:21;95008.78;;;8.93;79.09
61128;BME280;47013;42.664;23.242;2023-01-04T13:18:58;95004.91;;;8.94;79.27
61128;BME280;47013;42.664;23.242;2023-01-04T13:23:59;95014.22;;;8.96;78.88
61128;BME280;47013;42.664;23.242;2023-01-04T13:26:41;95018.44;;;8.94;79.16
61128;BME280;47013;42.664;23.242;2023-01-04T13:29:28;95015.38;;;8.95;79.27
61128;BME280;47013;42.664;23.242;2023-01-04T13:34:23;95017.31;;;8.95;79.43
61128;BME280;47013;42.664;23.242;2023-01-04T13:39:41;95022.63;;;8.88;79.95
61128;BME280;47013;42.664;23.242;2023-01-04T13:42:18;95013.28;;;8.81;79.80
61128;BME280;47013;42.664;23.242;2023-01-04T13:45:17;95019.06;;;8.80;80.29
61128;BME280;47013;42.664;23.242;2023-01-04T13:47:49;95016.34;;;8.80;80.39
61128;BME280;47013;42.664;23.242;2023-01-04T13:52:55;95014.16;;;8.89;80.14
61128;BME280;47013;42.664;23.242;2023-01-04T13:58:00;95021.16;;;8.94;79.83
61128;BME280;47013;42.664;23.242;2023-01-04T14:00:29;95010.69;;;8.92;80.14
61128;BME280;47013;42.664;23.242;2023-01-04T14:03:06;95025.75;;;8.90;79.97
61128;BME280;47013;42.664;23.242;2023-01-04T14:05:37;95021.09;;;8.86;80.91
61128;BME280;47013;42.664;23.242;2023-01-04T14:08:08;95009.81;;;8.84;80.85
61128;BME280;47013;42.664;23.242;2023-01-04T14:10:35;95024.88;;;8.82;80.72
61128;BME280;47013;42.664;23.242;2023-01-04T14:13:02;95020.22;;;8.82;81.03
61128;BME280;47013;42.664;23.242;2023-01-04T14:15:28;95020.59;;;8.81;80.89
61128;BME280;47013;42.664;23.242;2023-01-04T14:17:58;95011.31;;;8.78;80.59
61128;BME280;47013;42.664;23.242;2023-01-04T14:20:35;95027.53;;;8.78;81.19
61128;BME280;47013;42.664;23.242;2023-01-04T14:23:01;95015.16;;;8.77;81.34
61128;BME280;47013;42.664;23.242;2023-01-04T14:41:20;95023.75;;;8.56;82.14
61128;BME280;47013;42.664;23.242;2023-01-04T14:44:04;95023.72;;;8.53;82.95
61128;BME280;47013;42.664;23.242;2023-01-04T14:46:31;95018.63;;;8.48;82.48
61128;BME280;47013;42.664;23.242;2023-01-04T14:48:56;95023.97;;;8.44;82.59
61128;BME280;47013;42.664;23.242;2023-01-04T14:51:34;95023.16;;;8.40;82.41
61128;BME280;47013;42.664;23.242;2023-01-04T14:54:05;95023.81;;;8.34;82.88
61128;BME280;47013;42.664;23.242;2023-01-04T14:56:31;95029.50;;;8.28;83.30
61128;BME280;47013;42.664;23.242;2023-01-04T14:58:56;95027.91;;;8.24;83.26
61128;BME280;47013;42.664;23.242;2023-01-04T15:01:22;95029.75;;;8.20;83.77
61128;BME280;47013;42.664;23.242;2023-01-04T15:03:47;95032.47;;;8.20;83.61
61128;BME280;47013;42.664;23.242;2023-01-04T15:06:12;95027.34;;;8.11;84.06
61128;BME280;47013;42.664;23.242;2023-01-04T15:08:38;95024.22;;;8.09;84.51
61128;BME280;47013;42.664;23.242;2023-01-04T15:11:03;95021.53;;;8.09;84.41
61128;BME280;47013;42.664;23.242;2023-01-04T15:13:29;95024.91;;;8.06;84.56
61128;BME280;47013;42.664;23.242;2023-01-04T15:15:56;95019.59;;;7.87;85.59
61128;BME280;47013;42.664;23.242;2023-01-04T15:18:21;95025.84;;;7.91;85.66
61128;BME280;47013;42.664;23.242;2023-01-04T15:20:47;95025.47;;;7.92;85.60
61128;BME280;47013;42.664;23.242;2023-01-04T15:23:12;95020.38;;;7.87;85.89
61128;BME280;47013;42.664;23.242;2023-01-04T15:25:39;95032.03;;;7.91;85.95
61128;BME280;47013;42.664;23.242;2023-01-04T15:28:05;95034.53;;;7.81;86.83
61128;BME280;47013;42.664;23.242;2023-01-04T15:30:31;95035.25;;;7.78;87.24
61128;BME280;47013;42.664;23.242;2023-01-04T15:32:56;95036.00;;;7.75;86.60
61128;BME280;47013;42.664;23.242;2023-01-04T15:35:22;95050.72;;;7.81;86.92
61128;BME280;47013;42.664;23.242;2023-01-04T15:37:47;95044.50;;;7.77;87.42
61128;BME280;47013;42.664;23.242;2023-01-04T15:40:15;95048.84;;;7.81;86.75
61128;BME280;47013;42.664;23.242;2023-01-04T15:42:41;95038.69;;;7.75;87.15
61128;BME280;47013;42.664;23.242;2023-01-04T15:45:30;95051.19;;;7.83;86.80
61128;BME280;47013;42.664;23.242;2023-01-04T15:47:59;95041.44;;;7.78;86.80
61128;BME280;47013;42.664;23.242;2023-01-04T15:50:32;95049.63;;;7.82;86.97
61128;BME280;47013;42.664;23.242;2023-01-04T15:52:58;95043.25;;;7.71;87.07
61128;BME280;47013;42.664;23.242;2023-01-04T15:55:24;95046.25;;;7.65;87.35
61128;BME280;47013;42.664;23.242;2023-01-04T15:57:49;95051.72;;;7.69;87.72
61128;BME280;47013;42.664;23.242;2023-01-04T16:00:15;95053.75;;;7.76;87.92
61128;BME280;47013;42.664;23.242;2023-01-04T16:02:43;95054.16;;;7.78;87.44
61128;BME280;47013;42.664;23.242;2023-01-04T16:05:08;95047.97;;;7.77;87.20
61128;BME280;47013;42.664;23.242;2023-01-04T16:07:34;95048.13;;;7.84;86.95
61128;BME280;47013;42.664;23.242;2023-01-04T16:09:59;95044.56;;;7.80;87.23
61128;BME280;47013;42.664;23.242;2023-01-04T16:12:25;95052.00;;;7.87;87.11
61128;BME280;47013;42.664;23.242;2023-01-04T16:15:13;95053.16;;;7.86;86.58
61128;BME280;47013;42.664;23.242;2023-01-04T16:17:40;95053.97;;;7.90;88.76
61128;BME280;47013;42.664;23.242;2023-01-04T16:20:06;95057.81;;;7.89;87.53
61128;BME280;47013;42.664;23.242;2023-01-04T16:22:31;95047.75;;;7.86;87.06
61128;BME280;47013;42.664;23.242;2023-01-04T16:24:57;95039.16;;;7.80;86.99
61128;BME280;47013;42.664;23.242;2023-01-04T16:27:22;95044.16;;;7.78;87.28
61128;BME280;47013;42.664;23.242;2023-01-04T16:29:48;95045.00;;;7.82;87.27
61128;BME280;47013;42.664;23.242;2023-01-04T16:32:17;95050.69;;;7.77;87.40
61128;BME280;47013;42.664;23.242;2023-01-04T16:34:42;95047.63;;;7.79;87.58
61128;BME280;47013;42.664;23.242;2023-01-04T16:37:08;95050.69;;;7.77;87.84
61128;BME280;47013;42.664;23.242;2023-01-04T16:39:33;95049.13;;;7.76;87.85
61128;BME280;47013;42.664;23.242;2023-01-04T16:41:59;95046.25;;;7.88;91.08
61128;BME280;47013;42.664;23.242;2023-01-04T16:44:24;95040.38;;;7.83;87.19
61128;BME280;47013;42.664;23.242;2023-01-04T16:46:50;95049.31;;;7.87;87.27
61128;BME280;47013;42.664;23.242;2023-01-04T16:49:16;95050.72;;;7.81;87.22
61128;BME280;47013;42.664;23.242;2023-01-04T16:51:44;95036.34;;;7.73;87.04
61128;BME280;47013;42.664;23.242;2023-01-04T16:54:14;95043.31;;;7.74;87.61
61128;BME280;47013;42.664;23.242;2023-01-04T16:56:41;95041.75;;;7.73;87.95
61128;BME280;47013;42.664;23.242;2023-01-04T16:59:08;95039.78;;;7.70;87.81
61128;BME280;47013;42.664;23.242;2023-01-04T17:01:35;95031.97;;;7.65;87.76
61128;BME280;47013;42.664;23.242;2023-01-04T17:04:04;95042.84;;;7.68;88.02
61128;BME280;47013;42.664;23.242;2023-01-04T17:06:39;95039.00;;;7.69;87.60
61128;BME280;47013;42.664;23.242;2023-01-04T17:09:06;95045.88;;;7.67;87.96
61128;BME280;47013;42.664;23.242;2023-01-04T17:11:35;95050.13;;;7.68;88.31
61128;BME280;47013;42.664;23.242;2023-01-04T17:14:05;95052.50;;;7.69;88.19
61128;BME280;47013;42.664;23.242;2023-01-04T17:16:31;95050.94;;;7.68;88.00
61128;BME280;47013;42.664;23.242;2023-01-04T17:18:57;95054.47;;;7.73;87.82
61128;BME280;47013;42.664;23.242;2023-01-04T17:21:25;95054.88;;;7.75;87.55
61128;BME280;47013;42.664;23.242;2023-01-04T17:23:52;95050.22;;;7.72;87.79
61128;BME280;47013;42.664;23.242;2023-01-04T17:26:26;95048.56;;;7.67;88.09
61128;BME280;47013;42.664;23.242;2023-01-04T17:28:53;95054.75;;;7.67;88.22
61128;BME280;47013;42.664;23.242;2023-01-04T17:31:23;95055.88;;;7.66;88.26
61128;BME280;47013;42.664;23.242;2023-01-04T17:33:49;95049.81;;;7.50;88.90
61128;BME280;47013;42.664;23.242;2023-01-04T17:36:16;95049.88;;;7.54;89.34
61128;BME280;47013;42.664;23.242;2023-01-04T17:38:42;95044.84;;;7.52;89.32
61128;BME280;47013;42.664;23.242;2023-01-04T17:41:13;95054.94;;;7.55;89.26
61128;BME280;47013;42.664;23.242;2023-01-04T17:43:40;95059.91;;;7.53;89.08
61128;BME280;47013;42.664;23.242;2023-01-04T17:46:17;95054.09;;;7.51;89.14
61128;BME280;47013;42.664;23.242;2023-01-04T17:48:43;95051.81;;;7.53;89.54
61128;BME280;47013;42.664;23.242;2023-01-04T17:51:12;95050.66;;;7.54;89.02
61128;BME280;47013;42.664;23.242;2023-01-04T17:53:39;95048.53;;;7.63;95.88
61128;BME280;47013;42.664;23.242;2023-01-04T17:56:16;95055.00;;;7.59;89.73
61128;BME280;47013;42.664;23.242;2023-01-04T17:58:43;95052.84;;;7.68;96.41
61128;BME280;47013;42.664;23.242;2023-01-04T18:01:20;95043.06;;;7.60;89.50
61128;BME280;47013;42.664;23.242;2023-01-04T18:03:48;95043.13;;;7.63;89.00
61128;BME280;47013;42.664;23.242;2023-01-04T18:06:15;95047.69;;;7.59;89.09
61128;BME280;47013;42.664;23.242;2023-01-04T18:08:41;95047.31;;;7.61;90.34
61128;BME280;47013;42.664;23.242;2023-01-04T18:11:06;95050.81;;;7.61;89.12
61128;BME280;47013;42.664;23.242;2023-01-04T18:13:32;95046.91;;;7.59;89.03
61128;BME280;47013;42.664;23.242;2023-01-04T18:15:58;95046.50;;;7.57;89.31
61128;BME280;47013;42.664;23.242;2023-01-04T18:18:24;95048.31;;;7.53;89.13
61128;BME280;47013;42.664;23.242;2023-01-04T18:20:49;95052.25;;;7.55;89.22
61128;BME280;47013;42.664;23.242;2023-01-04T18:23:14;95045.00;;;7.59;88.98
61128;BME280;47013;42.664;23.242;2023-01-04T18:25:40;95055.38;;;7.57;89.21
61128;BME280;47013;42.664;23.242;2023-01-04T18:28:05;95054.94;;;7.55;89.61
61128;BME280;47013;42.664;23.242;2023-01-04T18:30:31;95052.59;;;7.54;89.76
61128;BME280;47013;42.664;23.242;2023-01-04T18:32:56;95052.09;;;7.48;89.96
61128;BME280;47013;42.664;23.242;2023-01-04T18:35:21;95048.28;;;7.49;89.84
61128;BME280;47013;42.664;23.242;2023-01-04T18:37:46;95049.41;;;7.29;91.13
61128;BME280;47013;42.664;23.242;2023-01-04T18:40:12;95051.78;;;7.30;91.45
61128;BME280;47013;42.664;23.242;2023-01-04T18:42:37;95066.13;;;7.34;91.18
61128;BME280;47013;42.664;23.242;2023-01-04T18:45:02;95054.97;;;7.36;91.31
61128;BME280;47013;42.664;23.242;2023-01-04T18:47:28;95062.34;;;7.39;90.85
61128;BME280;47013;42.664;23.242;2023-01-04T18:49:53;95061.19;;;7.40;90.72
61128;BME280;47013;42.664;23.242;2023-01-04T18:52:20;95061.56;;;7.38;91.01
61128;BME280;47013;42.664;23.242;2023-01-04T18:54:46;95059.63;;;7.39;90.75
61128;BME280;47013;42.664;23.242;2023-01-04T18:57:12;95067.72;;;7.39;90.93
61128;BME280;47013;42.664;23.242;2023-01-04T18:59:37;95054.91;;;7.32;91.45
61128;BME280;47013;42.664;23.242;2023-01-04T19:02:02;95057.59;;;7.32;91.24
61128;BME280;47013;42.664;23.242;2023-01-04T19:04:28;95052.22;;;7.32;91.21
61128;BME280;47013;42.664;23.242;2023-01-04T19:06:54;95045.31;;;7.35;91.02
61128;BME280;47013;42.664;23.242;2023-01-04T19:09:19;95045.66;;;7.33;91.18